Archival Weather

Chicago O'Hare International

Chicago, Illinois (KORD)

Report from: Thursday, August 24, 2023 3:51 PM CDT
Current time: Wednesday, April 24, 2024 1:58 PM CDT

Current weather – Weather history – Daily summaries
Weather forecast

Temperature37.2°C (99.0°F)
Heat index47.3°C (117.1°F)
Dew point25.6°C (78.1°F)
Winds 15 kts (7.7 m/s, 17.3 mph) Southwest (220°)
Wind gusts 23 kts (11.8 m/s, 26.5 mph)
Peak wind 26 kts (13.4 m/s, 29.9 mph) Southwest (220°) at 20:40
Visibility10 mi. (16.1 km)
Clouds Few clouds 5,000 ft. (1,524 m)
Few clouds 17,000 ft. (5,182 m)
Altimeter29.76 in.Hg (1008 mB)
Relative humidity52 %
Density altitude3,153 ft. (961 m)
Sea-level pressure100.7 kPa (1007 mB, 29.74 in.Hg)
Remarks Automated weather observing station with precipitation discriminator
Cumulonimbus clouds observed distant northwest north
Pressure falling more slowly
Flight conditions Visual Meteorological Conditions
Raw dataKORD 242051Z 22015G23KT 10SM FEW050 FEW170 37/26 A2976 RMK AO2 PK WND 22026/2040 SLP070 CB DSNT NW-N T03720256 56018
An error has occurred. This application may no longer respond until reloaded. Reload 🗙